עמוד ראשי
METAR-TAF:

METAR-TAF

שדות תעופה :

ביירות, לבנון

קו רוחב: 33-49N, קו אורך: 035-29E, גובה: 29מטר

תצפית מזג אוויר נוכחית

הדו"ח נערך לפני 30דקות, בשעה 21:00 UTC
רוח 12קשר מכיוון דרום/דרום-מערב
טמפרטורת 28 צלסיוס
לחות 79%
לחץ 1006 hPa
ראות: 6000מטר
עננים פזורים בגובה 2400רגל

METAR: OLBA 232100Z 20012KT 6000 SCT024 28/24 Q1006 NOSIG

זמן: 00:30 (21:30 UTC)

תחזית

הדו"ח נערך לפני 5 שעות ו 30דקות, בשעה 16:00 UTC
תחזית בתוקף מ 23 ב 18 UTC עד 24 ב 24 UTC
רוח 12קשר מכיוון דרום/דרום-מערב
ראות: 8000מטר
עננים פזורים בגובה 2600רגל
זמנית מ -
23 ב 18 UTC עד 24 ב 06 UTC
ראות: 5000מטר
אד,

TAF: OLBA 231600Z 2318/2424 21012KT 8000 SCT026 TEMPO 2318/2406 5000 BR

תצפיות ותחזיות מזג אוויר לגבי יותר מ- 4,000 שדות תעופה ברחבי העולם. דוחות METAR ו- TAF.

התחנות הזמינות מסומנות בנקודות צהובות ואדומות על גבי המפה.

העבר את העכבר לנקודה הצבעונית על מנת לראות את שם התחנה.

לאחר מכן, לחץ כדי לראות את תוכן ואת תחזיות מזג האוויר.

כדי לשנות את המפה: לחץ על הכפתורים הירוקים עם הפלוס השחור כדי להתקרב; על הכפתור הירוק עם המקף כדי להתרחק; או בחיצים הירוקים למפות סמוכות.


METAR-TAF: